sensor_id;sensor_type;location;lat;lon;timestamp;P1;durP1;ratioP1;P2;durP2;ratioP2
38034;SDS011;23841;48.524;1.342;2023-05-07T00:00:45;1.50;;;0.60;;
38034;SDS011;23841;48.524;1.342;2023-05-07T00:03:11;1.88;;;0.68;;
38034;SDS011;23841;48.524;1.342;2023-05-07T00:05:38;1.38;;;0.63;;
38034;SDS011;23841;48.524;1.342;2023-05-07T00:08:04;2.40;;;0.80;;
38034;SDS011;23841;48.524;1.342;2023-05-07T00:10:30;1.05;;;0.50;;
38034;SDS011;23841;48.524;1.342;2023-05-07T00:12:55;1.63;;;0.70;;
38034;SDS011;23841;48.524;1.342;2023-05-07T00:15:21;2.30;;;0.50;;
38034;SDS011;23841;48.524;1.342;2023-05-07T00:17:46;1.88;;;0.70;;
38034;SDS011;23841;48.524;1.342;2023-05-07T00:20:12;2.42;;;0.50;;
38034;SDS011;23841;48.524;1.342;2023-05-07T00:22:37;2.10;;;0.68;;
38034;SDS011;23841;48.524;1.342;2023-05-07T00:25:03;1.38;;;0.70;;
38034;SDS011;23841;48.524;1.342;2023-05-07T00:27:29;1.10;;;0.47;;
38034;SDS011;23841;48.524;1.342;2023-05-07T00:29:54;2.55;;;0.75;;
38034;SDS011;23841;48.524;1.342;2023-05-07T00:32:20;1.48;;;0.90;;
38034;SDS011;23841;48.524;1.342;2023-05-07T00:34:45;1.13;;;0.65;;
38034;SDS011;23841;48.524;1.342;2023-05-07T00:37:11;3.38;;;1.30;;
38034;SDS011;23841;48.524;1.342;2023-05-07T00:39:37;2.15;;;0.73;;
38034;SDS011;23841;48.524;1.342;2023-05-07T00:42:02;0.88;;;0.55;;
38034;SDS011;23841;48.524;1.342;2023-05-07T00:44:28;3.22;;;0.60;;
38034;SDS011;23841;48.524;1.342;2023-05-07T00:46:54;0.70;;;0.50;;
38034;SDS011;23841;48.524;1.342;2023-05-07T00:49:21;2.08;;;0.80;;
38034;SDS011;23841;48.524;1.342;2023-05-07T00:51:48;1.83;;;0.75;;
38034;SDS011;23841;48.524;1.342;2023-05-07T00:54:14;1.17;;;0.52;;
38034;SDS011;23841;48.524;1.342;2023-05-07T00:56:40;0.93;;;0.70;;
38034;SDS011;23841;48.524;1.342;2023-05-07T00:59:06;2.10;;;0.60;;
38034;SDS011;23841;48.524;1.342;2023-05-07T01:01:31;3.45;;;0.80;;
38034;SDS011;23841;48.524;1.342;2023-05-07T01:03:57;2.80;;;0.70;;
38034;SDS011;23841;48.524;1.342;2023-05-07T01:06:23;1.45;;;0.57;;
38034;SDS011;23841;48.524;1.342;2023-05-07T01:08:50;3.33;;;0.65;;
38034;SDS011;23841;48.524;1.342;2023-05-07T01:11:17;1.25;;;0.75;;
38034;SDS011;23841;48.524;1.342;2023-05-07T01:13:45;1.05;;;0.60;;
38034;SDS011;23841;48.524;1.342;2023-05-07T01:16:12;2.72;;;1.00;;
38034;SDS011;23841;48.524;1.342;2023-05-07T01:18:37;2.35;;;0.63;;
38034;SDS011;23841;48.524;1.342;2023-05-07T01:21:03;0.65;;;0.50;;
38034;SDS011;23841;48.524;1.342;2023-05-07T01:23:30;2.20;;;0.80;;
38034;SDS011;23841;48.524;1.342;2023-05-07T01:25:55;2.40;;;0.70;;
38034;SDS011;23841;48.524;1.342;2023-05-07T01:28:21;2.42;;;0.82;;
38034;SDS011;23841;48.524;1.342;2023-05-07T01:30:49;0.93;;;0.50;;
38034;SDS011;23841;48.524;1.342;2023-05-07T01:33:21;2.65;;;0.63;;
38034;SDS011;23841;48.524;1.342;2023-05-07T01:35:47;0.65;;;0.55;;
38034;SDS011;23841;48.524;1.342;2023-05-07T01:38:16;1.02;;;0.55;;
38034;SDS011;23841;48.524;1.342;2023-05-07T01:40:43;0.77;;;0.60;;
38034;SDS011;23841;48.524;1.342;2023-05-07T01:43:08;1.95;;;0.47;;
38034;SDS011;23841;48.524;1.342;2023-05-07T01:45:35;1.83;;;0.75;;
38034;SDS011;23841;48.524;1.342;2023-05-07T01:48:02;0.60;;;0.50;;
38034;SDS011;23841;48.524;1.342;2023-05-07T01:50:28;1.15;;;0.70;;
38034;SDS011;23841;48.524;1.342;2023-05-07T01:52:55;0.60;;;0.50;;
38034;SDS011;23841;48.524;1.342;2023-05-07T01:55:20;0.82;;;0.57;;
38034;SDS011;23841;48.524;1.342;2023-05-07T01:57:46;0.73;;;0.50;;
38034;SDS011;23841;48.524;1.342;2023-05-07T02:00:11;0.95;;;0.60;;
38034;SDS011;23841;48.524;1.342;2023-05-07T02:02:37;1.67;;;0.70;;
38034;SDS011;23841;48.524;1.342;2023-05-07T02:05:03;1.55;;;0.57;;
38034;SDS011;23841;48.524;1.342;2023-05-07T02:07:29;0.73;;;0.55;;
38034;SDS011;23841;48.524;1.342;2023-05-07T02:09:55;1.75;;;0.55;;
38034;SDS011;23841;48.524;1.342;2023-05-07T02:12:20;0.63;;;0.30;;
38034;SDS011;23841;48.524;1.342;2023-05-07T02:14:46;1.10;;;0.52;;
38034;SDS011;23841;48.524;1.342;2023-05-07T02:17:11;1.00;;;0.60;;
38034;SDS011;23841;48.524;1.342;2023-05-07T02:19:37;1.70;;;1.23;;
38034;SDS011;23841;48.524;1.342;2023-05-07T02:22:03;0.93;;;0.60;;
38034;SDS011;23841;48.524;1.342;2023-05-07T02:24:28;1.50;;;0.47;;
38034;SDS011;23841;48.524;1.342;2023-05-07T02:26:53;1.08;;;0.50;;
38034;SDS011;23841;48.524;1.342;2023-05-07T02:29:19;0.40;;;0.40;;
38034;SDS011;23841;48.524;1.342;2023-05-07T02:31:44;0.77;;;0.43;;
38034;SDS011;23841;48.524;1.342;2023-05-07T02:34:10;0.32;;;0.32;;
38034;SDS011;23841;48.524;1.342;2023-05-07T02:36:35;2.42;;;1.13;;
38034;SDS011;23841;48.524;1.342;2023-05-07T02:39:01;0.93;;;0.43;;
38034;SDS011;23841;48.524;1.342;2023-05-07T02:41:27;0.80;;;0.50;;
38034;SDS011;23841;48.524;1.342;2023-05-07T02:43:53;0.88;;;0.50;;
38034;SDS011;23841;48.524;1.342;2023-05-07T02:46:19;0.57;;;0.43;;
38034;SDS011;23841;48.524;1.342;2023-05-07T02:48:44;0.70;;;0.50;;
38034;SDS011;23841;48.524;1.342;2023-05-07T02:51:10;1.30;;;0.45;;
38034;SDS011;23841;48.524;1.342;2023-05-07T02:53:35;0.90;;;0.40;;
38034;SDS011;23841;48.524;1.342;2023-05-07T02:56:01;0.75;;;0.43;;
38034;SDS011;23841;48.524;1.342;2023-05-07T02:58:27;1.02;;;0.50;;
38034;SDS011;23841;48.524;1.342;2023-05-07T03:00:53;3.03;;;0.55;;
38034;SDS011;23841;48.524;1.342;2023-05-07T03:03:22;1.98;;;0.60;;
38034;SDS011;23841;48.524;1.342;2023-05-07T03:05:47;1.00;;;0.52;;
38034;SDS011;23841;48.524;1.342;2023-05-07T03:08:13;1.58;;;0.60;;
38034;SDS011;23841;48.524;1.342;2023-05-07T03:10:38;1.50;;;0.40;;
38034;SDS011;23841;48.524;1.342;2023-05-07T03:13:04;0.63;;;0.40;;
38034;SDS011;23841;48.524;1.342;2023-05-07T03:15:30;0.80;;;0.40;;
38034;SDS011;23841;48.524;1.342;2023-05-07T03:17:55;0.85;;;0.43;;
38034;SDS011;23841;48.524;1.342;2023-05-07T03:20:20;1.00;;;0.50;;
38034;SDS011;23841;48.524;1.342;2023-05-07T03:22:46;0.68;;;0.50;;
38034;SDS011;23841;48.524;1.342;2023-05-07T03:25:12;1.33;;;0.50;;
38034;SDS011;23841;48.524;1.342;2023-05-07T03:27:37;0.52;;;0.50;;
38034;SDS011;23841;48.524;1.342;2023-05-07T03:30:03;1.42;;;0.63;;
38034;SDS011;23841;48.524;1.342;2023-05-07T03:32:29;2.92;;;0.70;;
38034;SDS011;23841;48.524;1.342;2023-05-07T03:34:54;1.00;;;0.60;;
38034;SDS011;23841;48.524;1.342;2023-05-07T03:37:20;1.02;;;0.50;;
38034;SDS011;23841;48.524;1.342;2023-05-07T03:39:46;0.40;;;0.40;;
38034;SDS011;23841;48.524;1.342;2023-05-07T03:42:12;0.50;;;0.50;;
38034;SDS011;23841;48.524;1.342;2023-05-07T03:44:37;0.50;;;0.50;;
38034;SDS011;23841;48.524;1.342;2023-05-07T03:47:03;1.08;;;0.60;;
38034;SDS011;23841;48.524;1.342;2023-05-07T03:49:29;1.27;;;0.50;;
38034;SDS011;23841;48.524;1.342;2023-05-07T03:51:54;0.90;;;0.60;;
38034;SDS011;23841;48.524;1.342;2023-05-07T03:54:20;1.38;;;0.70;;
38034;SDS011;23841;48.524;1.342;2023-05-07T03:56:46;1.50;;;0.70;;
38034;SDS011;23841;48.524;1.342;2023-05-07T03:59:12;0.80;;;0.50;;
38034;SDS011;23841;48.524;1.342;2023-05-07T04:01:38;1.70;;;0.73;;
38034;SDS011;23841;48.524;1.342;2023-05-07T04:04:03;0.73;;;0.52;;
38034;SDS011;23841;48.524;1.342;2023-05-07T04:06:29;1.20;;;0.60;;
38034;SDS011;23841;48.524;1.342;2023-05-07T04:08:55;1.80;;;0.60;;
38034;SDS011;23841;48.524;1.342;2023-05-07T04:11:20;1.00;;;0.40;;
38034;SDS011;23841;48.524;1.342;2023-05-07T04:13:46;0.93;;;0.57;;
38034;SDS011;23841;48.524;1.342;2023-05-07T04:16:11;1.95;;;0.52;;
38034;SDS011;23841;48.524;1.342;2023-05-07T04:18:36;0.98;;;0.77;;
38034;SDS011;23841;48.524;1.342;2023-05-07T04:21:02;1.02;;;0.70;;
38034;SDS011;23841;48.524;1.342;2023-05-07T04:23:27;1.02;;;0.70;;
38034;SDS011;23841;48.524;1.342;2023-05-07T04:25:53;1.60;;;0.50;;
38034;SDS011;23841;48.524;1.342;2023-05-07T04:28:19;1.20;;;0.80;;
38034;SDS011;23841;48.524;1.342;2023-05-07T04:30:44;1.67;;;0.57;;
38034;SDS011;23841;48.524;1.342;2023-05-07T04:33:10;1.33;;;0.70;;
38034;SDS011;23841;48.524;1.342;2023-05-07T04:35:36;1.05;;;0.60;;
38034;SDS011;23841;48.524;1.342;2023-05-07T04:38:02;0.85;;;0.50;;
38034;SDS011;23841;48.524;1.342;2023-05-07T04:40:27;1.23;;;0.73;;
38034;SDS011;23841;48.524;1.342;2023-05-07T04:42:53;0.52;;;0.52;;
38034;SDS011;23841;48.524;1.342;2023-05-07T04:45:18;1.40;;;0.63;;
38034;SDS011;23841;48.524;1.342;2023-05-07T04:47:44;1.38;;;0.80;;
38034;SDS011;23841;48.524;1.342;2023-05-07T04:50:10;0.82;;;0.60;;
38034;SDS011;23841;48.524;1.342;2023-05-07T04:52:35;1.25;;;0.70;;
38034;SDS011;23841;48.524;1.342;2023-05-07T04:55:01;1.50;;;0.90;;
38034;SDS011;23841;48.524;1.342;2023-05-07T04:57:26;15.02;;;1.75;;
38034;SDS011;23841;48.524;1.342;2023-05-07T04:59:52;0.50;;;0.50;;
38034;SDS011;23841;48.524;1.342;2023-05-07T05:02:18;3.38;;;0.70;;
38034;SDS011;23841;48.524;1.342;2023-05-07T05:04:43;1.23;;;0.90;;
38034;SDS011;23841;48.524;1.342;2023-05-07T05:07:09;0.90;;;0.70;;
38034;SDS011;23841;48.524;1.342;2023-05-07T05:09:35;1.48;;;0.80;;
38034;SDS011;23841;48.524;1.342;2023-05-07T05:12:00;1.08;;;0.63;;
38034;SDS011;23841;48.524;1.342;2023-05-07T05:14:25;2.15;;;1.25;;
38034;SDS011;23841;48.524;1.342;2023-05-07T05:16:51;2.45;;;1.25;;
38034;SDS011;23841;48.524;1.342;2023-05-07T05:19:16;1.38;;;0.80;;
38034;SDS011;23841;48.524;1.342;2023-05-07T05:21:42;1.73;;;0.93;;
38034;SDS011;23841;48.524;1.342;2023-05-07T05:24:07;1.20;;;0.82;;
38034;SDS011;23841;48.524;1.342;2023-05-07T05:26:33;0.60;;;0.60;;
38034;SDS011;23841;48.524;1.342;2023-05-07T05:28:59;0.90;;;0.70;;
38034;SDS011;23841;48.524;1.342;2023-05-07T05:31:24;2.67;;;1.00;;
38034;SDS011;23841;48.524;1.342;2023-05-07T05:33:50;2.65;;;0.80;;
38034;SDS011;23841;48.524;1.342;2023-05-07T05:36:15;1.35;;;0.82;;
38034;SDS011;23841;48.524;1.342;2023-05-07T05:38:41;2.42;;;0.98;;
38034;SDS011;23841;48.524;1.342;2023-05-07T05:41:06;0.70;;;0.60;;
38034;SDS011;23841;48.524;1.342;2023-05-07T05:43:32;1.02;;;0.82;;
38034;SDS011;23841;48.524;1.342;2023-05-07T05:45:58;2.00;;;0.90;;
38034;SDS011;23841;48.524;1.342;2023-05-07T05:48:23;1.50;;;0.80;;
38034;SDS011;23841;48.524;1.342;2023-05-07T05:50:49;2.00;;;1.00;;
38034;SDS011;23841;48.524;1.342;2023-05-07T05:53:14;2.20;;;1.00;;
38034;SDS011;23841;48.524;1.342;2023-05-07T05:55:41;1.17;;;0.80;;
38034;SDS011;23841;48.524;1.342;2023-05-07T05:58:06;3.88;;;1.00;;
38034;SDS011;23841;48.524;1.342;2023-05-07T06:00:32;0.77;;;0.70;;
38034;SDS011;23841;48.524;1.342;2023-05-07T06:02:58;1.15;;;0.70;;
38034;SDS011;23841;48.524;1.342;2023-05-07T06:05:23;1.60;;;1.00;;
38034;SDS011;23841;48.524;1.342;2023-05-07T06:07:48;0.70;;;0.60;;
38034;SDS011;23841;48.524;1.342;2023-05-07T06:10:14;1.33;;;0.90;;
38034;SDS011;23841;48.524;1.342;2023-05-07T06:12:39;2.97;;;0.93;;
38034;SDS011;23841;48.524;1.342;2023-05-07T06:15:05;1.38;;;0.70;;
38034;SDS011;23841;48.524;1.342;2023-05-07T06:17:31;0.85;;;0.60;;
38034;SDS011;23841;48.524;1.342;2023-05-07T06:19:56;1.38;;;0.80;;
38034;SDS011;23841;48.524;1.342;2023-05-07T06:22:22;2.70;;;0.73;;
38034;SDS011;23841;48.524;1.342;2023-05-07T06:24:47;1.83;;;0.88;;
38034;SDS011;23841;48.524;1.342;2023-05-07T06:27:13;1.13;;;0.77;;
38034;SDS011;23841;48.524;1.342;2023-05-07T06:29:38;1.30;;;0.80;;
38034;SDS011;23841;48.524;1.342;2023-05-07T06:32:10;1.70;;;0.90;;
38034;SDS011;23841;48.524;1.342;2023-05-07T06:34:37;2.22;;;1.08;;
38034;SDS011;23841;48.524;1.342;2023-05-07T06:37:03;1.33;;;0.88;;
38034;SDS011;23841;48.524;1.342;2023-05-07T06:39:28;1.40;;;0.90;;
38034;SDS011;23841;48.524;1.342;2023-05-07T06:41:53;3.50;;;1.33;;
38034;SDS011;23841;48.524;1.342;2023-05-07T06:44:19;2.42;;;1.48;;
38034;SDS011;23841;48.524;1.342;2023-05-07T06:46:44;1.85;;;1.00;;
38034;SDS011;23841;48.524;1.342;2023-05-07T06:49:11;2.33;;;0.90;;
38034;SDS011;23841;48.524;1.342;2023-05-07T06:51:37;1.83;;;1.00;;
38034;SDS011;23841;48.524;1.342;2023-05-07T06:54:03;1.30;;;0.80;;
38034;SDS011;23841;48.524;1.342;2023-05-07T06:56:29;2.55;;;1.48;;
38034;SDS011;23841;48.524;1.342;2023-05-07T06:58:55;2.28;;;1.20;;
38034;SDS011;23841;48.524;1.342;2023-05-07T07:01:20;3.25;;;0.98;;
38034;SDS011;23841;48.524;1.342;2023-05-07T07:03:45;1.98;;;1.48;;
38034;SDS011;23841;48.524;1.342;2023-05-07T07:06:11;1.65;;;0.95;;
38034;SDS011;23841;48.524;1.342;2023-05-07T07:08:37;1.73;;;1.10;;
38034;SDS011;23841;48.524;1.342;2023-05-07T07:11:03;2.50;;;1.27;;
38034;SDS011;23841;48.524;1.342;2023-05-07T07:13:29;2.10;;;1.25;;
38034;SDS011;23841;48.524;1.342;2023-05-07T07:15:55;1.63;;;1.00;;
38034;SDS011;23841;48.524;1.342;2023-05-07T07:18:20;2.70;;;1.10;;
38034;SDS011;23841;48.524;1.342;2023-05-07T07:20:46;1.40;;;0.98;;
38034;SDS011;23841;48.524;1.342;2023-05-07T07:23:11;2.63;;;0.98;;
38034;SDS011;23841;48.524;1.342;2023-05-07T07:25:37;3.63;;;1.80;;
38034;SDS011;23841;48.524;1.342;2023-05-07T07:28:02;2.28;;;1.08;;
38034;SDS011;23841;48.524;1.342;2023-05-07T07:30:28;1.52;;;0.93;;
38034;SDS011;23841;48.524;1.342;2023-05-07T07:32:53;2.67;;;1.10;;
38034;SDS011;23841;48.524;1.342;2023-05-07T07:35:20;2.42;;;1.00;;
38034;SDS011;23841;48.524;1.342;2023-05-07T07:37:45;1.67;;;1.00;;
38034;SDS011;23841;48.524;1.342;2023-05-07T07:40:12;1.20;;;0.88;;
38034;SDS011;23841;48.524;1.342;2023-05-07T07:42:37;1.80;;;1.15;;
38034;SDS011;23841;48.524;1.342;2023-05-07T07:45:03;2.72;;;0.95;;
38034;SDS011;23841;48.524;1.342;2023-05-07T07:47:29;1.40;;;0.88;;
38034;SDS011;23841;48.524;1.342;2023-05-07T07:49:54;3.28;;;1.30;;
38034;SDS011;23841;48.524;1.342;2023-05-07T07:52:20;2.10;;;1.10;;
38034;SDS011;23841;48.524;1.342;2023-05-07T07:54:46;3.17;;;1.10;;
38034;SDS011;23841;48.524;1.342;2023-05-07T07:57:11;1.70;;;0.90;;
38034;SDS011;23841;48.524;1.342;2023-05-07T07:59:36;1.48;;;0.75;;
38034;SDS011;23841;48.524;1.342;2023-05-07T08:02:02;1.40;;;0.90;;
38034;SDS011;23841;48.524;1.342;2023-05-07T08:04:27;2.88;;;1.35;;
38034;SDS011;23841;48.524;1.342;2023-05-07T08:06:53;1.70;;;0.90;;
38034;SDS011;23841;48.524;1.342;2023-05-07T08:09:19;1.00;;;0.70;;
38034;SDS011;23841;48.524;1.342;2023-05-07T08:11:45;1.58;;;0.70;;
38034;SDS011;23841;48.524;1.342;2023-05-07T08:14:11;1.40;;;0.80;;
38034;SDS011;23841;48.524;1.342;2023-05-07T08:16:36;1.67;;;0.80;;
38034;SDS011;23841;48.524;1.342;2023-05-07T08:19:02;3.17;;;1.00;;
38034;SDS011;23841;48.524;1.342;2023-05-07T08:21:27;1.45;;;0.85;;
38034;SDS011;23841;48.524;1.342;2023-05-07T08:23:53;0.98;;;0.75;;
38034;SDS011;23841;48.524;1.342;2023-05-07T08:26:18;1.67;;;0.80;;
38034;SDS011;23841;48.524;1.342;2023-05-07T08:28:45;1.35;;;0.80;;
38034;SDS011;23841;48.524;1.342;2023-05-07T08:31:10;1.02;;;0.70;;
38034;SDS011;23841;48.524;1.342;2023-05-07T08:33:36;1.38;;;0.73;;
38034;SDS011;23841;48.524;1.342;2023-05-07T08:36:03;0.85;;;0.50;;
38034;SDS011;23841;48.524;1.342;2023-05-07T08:38:29;1.98;;;0.80;;
38034;SDS011;23841;48.524;1.342;2023-05-07T08:40:54;0.65;;;0.52;;
38034;SDS011;23841;48.524;1.342;2023-05-07T08:43:19;1.92;;;0.80;;
38034;SDS011;23841;48.524;1.342;2023-05-07T08:45:48;1.65;;;0.70;;
38034;SDS011;23841;48.524;1.342;2023-05-07T08:48:17;3.67;;;1.13;;
38034;SDS011;23841;48.524;1.342;2023-05-07T08:50:44;1.88;;;0.70;;
38034;SDS011;23841;48.524;1.342;2023-05-07T08:53:10;0.90;;;0.60;;
38034;SDS011;23841;48.524;1.342;2023-05-07T08:55:35;1.25;;;0.85;;
38034;SDS011;23841;48.524;1.342;2023-05-07T08:58:01;1.60;;;0.98;;
38034;SDS011;23841;48.524;1.342;2023-05-07T09:00:26;1.48;;;0.70;;
38034;SDS011;23841;48.524;1.342;2023-05-07T09:02:52;0.82;;;0.63;;
38034;SDS011;23841;48.524;1.342;2023-05-07T09:05:18;4.03;;;0.77;;
38034;SDS011;23841;48.524;1.342;2023-05-07T09:07:44;9.32;;;1.05;;
38034;SDS011;23841;48.524;1.342;2023-05-07T09:10:11;6.82;;;1.20;;
38034;SDS011;23841;48.524;1.342;2023-05-07T09:12:37;9.93;;;1.23;;
38034;SDS011;23841;48.524;1.342;2023-05-07T09:15:06;4.28;;;1.02;;
38034;SDS011;23841;48.524;1.342;2023-05-07T09:17:32;6.50;;;1.35;;
38034;SDS011;23841;48.524;1.342;2023-05-07T09:20:06;7.00;;;1.90;;
38034;SDS011;23841;48.524;1.342;2023-05-07T09:22:32;6.20;;;1.42;;
38034;SDS011;23841;48.524;1.342;2023-05-07T09:24:59;3.08;;;0.98;;
38034;SDS011;23841;48.524;1.342;2023-05-07T09:27:24;3.95;;;1.20;;
38034;SDS011;23841;48.524;1.342;2023-05-07T09:29:51;5.28;;;1.40;;
38034;SDS011;23841;48.524;1.342;2023-05-07T09:32:16;4.47;;;1.08;;
38034;SDS011;23841;48.524;1.342;2023-05-07T09:34:42;6.53;;;1.15;;
38034;SDS011;23841;48.524;1.342;2023-05-07T09:37:07;4.63;;;1.10;;
38034;SDS011;23841;48.524;1.342;2023-05-07T09:42:09;2.92;;;0.90;;
38034;SDS011;23841;48.524;1.342;2023-05-07T09:44:35;2.92;;;1.10;;
38034;SDS011;23841;48.524;1.342;2023-05-07T09:47:01;2.90;;;0.93;;
38034;SDS011;23841;48.524;1.342;2023-05-07T09:49:30;2.63;;;1.10;;
38034;SDS011;23841;48.524;1.342;2023-05-07T09:51:59;5.30;;;1.25;;
38034;SDS011;23841;48.524;1.342;2023-05-07T09:54:26;1.55;;;0.90;;
38034;SDS011;23841;48.524;1.342;2023-05-07T09:56:55;3.65;;;1.10;;
38034;SDS011;23841;48.524;1.342;2023-05-07T09:59:22;1.73;;;0.88;;
38034;SDS011;23841;48.524;1.342;2023-05-07T10:01:49;2.78;;;1.10;;
38034;SDS011;23841;48.524;1.342;2023-05-07T10:04:19;2.38;;;1.08;;
38034;SDS011;23841;48.524;1.342;2023-05-07T10:06:48;2.60;;;1.02;;
38034;SDS011;23841;48.524;1.342;2023-05-07T10:09:14;1.92;;;1.00;;
38034;SDS011;23841;48.524;1.342;2023-05-07T10:11:40;2.70;;;1.30;;
38034;SDS011;23841;48.524;1.342;2023-05-07T10:14:08;3.05;;;1.40;;
38034;SDS011;23841;48.524;1.342;2023-05-07T10:16:36;4.50;;;1.15;;
38034;SDS011;23841;48.524;1.342;2023-05-07T10:19:06;5.80;;;1.90;;
38034;SDS011;23841;48.524;1.342;2023-05-07T10:21:35;3.85;;;1.30;;
38034;SDS011;23841;48.524;1.342;2023-05-07T10:24:06;2.15;;;1.30;;
38034;SDS011;23841;48.524;1.342;2023-05-07T10:26:39;2.55;;;1.58;;
38034;SDS011;23841;48.524;1.342;2023-05-07T10:29:11;2.50;;;1.17;;
38034;SDS011;23841;48.524;1.342;2023-05-07T10:34:38;2.45;;;1.10;;
38034;SDS011;23841;48.524;1.342;2023-05-07T10:37:06;2.15;;;1.40;;
38034;SDS011;23841;48.524;1.342;2023-05-07T10:39:34;2.38;;;1.33;;
38034;SDS011;23841;48.524;1.342;2023-05-07T10:42:12;3.55;;;1.55;;
38034;SDS011;23841;48.524;1.342;2023-05-07T10:44:39;2.35;;;1.20;;
38034;SDS011;23841;48.524;1.342;2023-05-07T10:49:30;3.67;;;1.65;;
38034;SDS011;23841;48.524;1.342;2023-05-07T10:54:38;5.40;;;2.05;;
38034;SDS011;23841;48.524;1.342;2023-05-07T11:00:00;2.75;;;1.50;;
38034;SDS011;23841;48.524;1.342;2023-05-07T11:05:25;3.97;;;1.85;;
38034;SDS011;23841;48.524;1.342;2023-05-07T11:07:55;3.88;;;1.67;;
38034;SDS011;23841;48.524;1.342;2023-05-07T11:13:11;3.72;;;2.00;;
38034;SDS011;23841;48.524;1.342;2023-05-07T11:15:43;2.72;;;1.63;;
38034;SDS011;23841;48.524;1.342;2023-05-07T11:18:10;3.70;;;1.80;;
38034;SDS011;23841;48.524;1.342;2023-05-07T11:20:46;3.22;;;1.73;;
38034;SDS011;23841;48.524;1.342;2023-05-07T11:28:36;5.50;;;1.95;;
38034;SDS011;23841;48.524;1.342;2023-05-07T11:31:03;2.63;;;1.58;;
38034;SDS011;23841;48.524;1.342;2023-05-07T11:33:30;2.75;;;1.38;;
38034;SDS011;23841;48.524;1.342;2023-05-07T11:35:56;5.20;;;1.63;;
38034;SDS011;23841;48.524;1.342;2023-05-07T11:38:22;4.32;;;1.58;;
38034;SDS011;23841;48.524;1.342;2023-05-07T11:40:57;4.95;;;1.30;;
38034;SDS011;23841;48.524;1.342;2023-05-07T11:43:25;2.65;;;1.40;;
38034;SDS011;23841;48.524;1.342;2023-05-07T11:45:51;2.22;;;1.27;;
38034;SDS011;23841;48.524;1.342;2023-05-07T11:48:17;2.17;;;1.38;;
38034;SDS011;23841;48.524;1.342;2023-05-07T11:50:51;3.22;;;1.20;;
38034;SDS011;23841;48.524;1.342;2023-05-07T11:55:45;2.40;;;1.50;;
38034;SDS011;23841;48.524;1.342;2023-05-07T11:58:12;3.03;;;1.67;;
38034;SDS011;23841;48.524;1.342;2023-05-07T12:00:51;4.13;;;1.50;;
38034;SDS011;23841;48.524;1.342;2023-05-07T12:03:18;4.82;;;1.70;;
38034;SDS011;23841;48.524;1.342;2023-05-07T12:05:44;2.20;;;1.40;;
38034;SDS011;23841;48.524;1.342;2023-05-07T12:08:19;2.42;;;1.42;;
38034;SDS011;23841;48.524;1.342;2023-05-07T12:10:46;4.35;;;1.63;;
38034;SDS011;23841;48.524;1.342;2023-05-07T12:13:23;3.42;;;1.45;;
38034;SDS011;23841;48.524;1.342;2023-05-07T12:15:55;4.70;;;1.80;;
38034;SDS011;23841;48.524;1.342;2023-05-07T12:18:21;3.65;;;1.38;;
38034;SDS011;23841;48.524;1.342;2023-05-07T12:20:48;4.65;;;1.60;;
38034;SDS011;23841;48.524;1.342;2023-05-07T12:23:14;4.28;;;1.77;;
38034;SDS011;23841;48.524;1.342;2023-05-07T12:25:41;6.60;;;2.03;;
38034;SDS011;23841;48.524;1.342;2023-05-07T12:28:16;3.58;;;1.70;;
38034;SDS011;23841;48.524;1.342;2023-05-07T12:30:43;3.35;;;1.67;;
38034;SDS011;23841;48.524;1.342;2023-05-07T12:33:11;3.47;;;1.50;;
38034;SDS011;23841;48.524;1.342;2023-05-07T12:35:42;3.53;;;1.38;;
38034;SDS011;23841;48.524;1.342;2023-05-07T12:38:09;3.33;;;1.50;;
38034;SDS011;23841;48.524;1.342;2023-05-07T12:40:39;2.72;;;1.50;;
38034;SDS011;23841;48.524;1.342;2023-05-07T12:43:26;4.93;;;1.70;;
38034;SDS011;23841;48.524;1.342;2023-05-07T12:45:53;6.70;;;1.80;;
38034;SDS011;23841;48.524;1.342;2023-05-07T12:48:21;5.00;;;1.85;;
38034;SDS011;23841;48.524;1.342;2023-05-07T12:50:50;4.13;;;1.73;;
38034;SDS011;23841;48.524;1.342;2023-05-07T12:53:23;4.10;;;1.90;;
38034;SDS011;23841;48.524;1.342;2023-05-07T12:55:53;4.18;;;1.77;;
38034;SDS011;23841;48.524;1.342;2023-05-07T13:00:48;6.13;;;1.92;;
38034;SDS011;23841;48.524;1.342;2023-05-07T13:05:54;6.18;;;1.63;;
38034;SDS011;23841;48.524;1.342;2023-05-07T13:08:28;5.55;;;1.40;;
38034;SDS011;23841;48.524;1.342;2023-05-07T13:11:02;3.40;;;1.77;;
38034;SDS011;23841;48.524;1.342;2023-05-07T13:13:32;3.60;;;1.67;;
38034;SDS011;23841;48.524;1.342;2023-05-07T13:15:59;5.65;;;2.33;;
38034;SDS011;23841;48.524;1.342;2023-05-07T13:18:25;5.82;;;1.50;;
38034;SDS011;23841;48.524;1.342;2023-05-07T13:20:52;4.10;;;1.88;;
38034;SDS011;23841;48.524;1.342;2023-05-07T13:23:18;4.68;;;1.70;;
38034;SDS011;23841;48.524;1.342;2023-05-07T13:25:43;4.80;;;1.80;;
38034;SDS011;23841;48.524;1.342;2023-05-07T13:28:10;6.78;;;1.95;;
38034;SDS011;23841;48.524;1.342;2023-05-07T13:30:37;3.78;;;1.73;;
38034;SDS011;23841;48.524;1.342;2023-05-07T13:33:02;4.13;;;1.88;;
38034;SDS011;23841;48.524;1.342;2023-05-07T13:35:27;4.70;;;1.77;;
38034;SDS011;23841;48.524;1.342;2023-05-07T13:37:53;3.13;;;1.92;;
38034;SDS011;23841;48.524;1.342;2023-05-07T13:40:19;3.80;;;1.90;;
38034;SDS011;23841;48.524;1.342;2023-05-07T13:42:46;4.75;;;1.90;;
38034;SDS011;23841;48.524;1.342;2023-05-07T13:45:12;6.35;;;2.17;;
38034;SDS011;23841;48.524;1.342;2023-05-07T13:47:39;4.40;;;1.63;;
38034;SDS011;23841;48.524;1.342;2023-05-07T13:50:06;4.35;;;2.13;;
38034;SDS011;23841;48.524;1.342;2023-05-07T13:52:32;4.75;;;2.10;;
38034;SDS011;23841;48.524;1.342;2023-05-07T13:54:57;4.28;;;2.20;;
38034;SDS011;23841;48.524;1.342;2023-05-07T13:57:23;3.90;;;1.77;;
38034;SDS011;23841;48.524;1.342;2023-05-07T13:59:49;4.70;;;2.25;;
38034;SDS011;23841;48.524;1.342;2023-05-07T14:02:14;5.75;;;2.17;;
38034;SDS011;23841;48.524;1.342;2023-05-07T14:04:40;5.45;;;2.20;;
38034;SDS011;23841;48.524;1.342;2023-05-07T14:07:05;3.97;;;2.05;;
38034;SDS011;23841;48.524;1.342;2023-05-07T14:09:31;5.90;;;2.05;;
38034;SDS011;23841;48.524;1.342;2023-05-07T14:11:56;7.03;;;2.03;;
38034;SDS011;23841;48.524;1.342;2023-05-07T14:14:21;4.80;;;2.45;;
38034;SDS011;23841;48.524;1.342;2023-05-07T14:16:47;5.13;;;2.00;;
38034;SDS011;23841;48.524;1.342;2023-05-07T14:19:12;4.35;;;1.70;;
38034;SDS011;23841;48.524;1.342;2023-05-07T14:21:38;4.28;;;1.90;;
38034;SDS011;23841;48.524;1.342;2023-05-07T14:24:03;5.15;;;1.70;;
38034;SDS011;23841;48.524;1.342;2023-05-07T14:26:34;4.95;;;2.03;;
38034;SDS011;23841;48.524;1.342;2023-05-07T14:29:00;4.47;;;2.03;;
38034;SDS011;23841;48.524;1.342;2023-05-07T14:31:25;4.55;;;2.00;;
38034;SDS011;23841;48.524;1.342;2023-05-07T14:33:51;6.63;;;2.10;;
38034;SDS011;23841;48.524;1.342;2023-05-07T14:36:17;5.32;;;2.00;;
38034;SDS011;23841;48.524;1.342;2023-05-07T14:38:45;4.10;;;1.77;;
38034;SDS011;23841;48.524;1.342;2023-05-07T14:41:12;3.60;;;1.70;;
38034;SDS011;23841;48.524;1.342;2023-05-07T14:43:46;6.95;;;1.90;;
38034;SDS011;23841;48.524;1.342;2023-05-07T14:46:15;4.60;;;1.73;;
38034;SDS011;23841;48.524;1.342;2023-05-07T14:48:43;5.65;;;1.77;;
38034;SDS011;23841;48.524;1.342;2023-05-07T14:51:10;5.68;;;1.92;;
38034;SDS011;23841;48.524;1.342;2023-05-07T14:53:35;3.25;;;1.60;;
38034;SDS011;23841;48.524;1.342;2023-05-07T14:56:01;7.05;;;2.05;;
38034;SDS011;23841;48.524;1.342;2023-05-07T14:58:26;4.43;;;1.77;;
38034;SDS011;23841;48.524;1.342;2023-05-07T15:00:52;3.92;;;1.73;;
38034;SDS011;23841;48.524;1.342;2023-05-07T15:03:17;4.82;;;1.92;;
38034;SDS011;23841;48.524;1.342;2023-05-07T15:05:43;3.63;;;1.60;;
38034;SDS011;23841;48.524;1.342;2023-05-07T15:08:08;5.10;;;1.63;;
38034;SDS011;23841;48.524;1.342;2023-05-07T15:10:35;6.53;;;1.65;;
38034;SDS011;23841;48.524;1.342;2023-05-07T15:13:05;4.30;;;1.88;;
38034;SDS011;23841;48.524;1.342;2023-05-07T15:15:31;4.05;;;1.67;;